Tadley, United Kingdom
Current Conditions -  °F | °C
As of 11:50 AM on Monday 26 Jan 2015 (Local Time) from EGVO Reporting Station
Broken Clouds Broken Clouds  
Wind Chill: 50°   Ceiling: 25000
Heat Index: 50°   Visibility: 6mi
Dew Point: 41°   Wind: 15mph
Humidity: 71%   Direction: 290°WNW
Pressure: 30.18"   Gusts: NA
Location:  51.35°N, 1.13°W
Report Text: EGVO 261150Z 29013KT 9999 SCT019 BKN250 10/05 Q1022 WHT BECMG FEW025 BLU
Loading
Personal Weather Stations






























Interactive Weather Map New forecast layout! Learn more

10-Day Weather Forecast

Advertisements
Track Severe Weather on mobile